Time;durP1;ratioP1;P1;durP2;ratioP2;P2;SDS_P1;SDS_P2;PMS_P1;PMS_P2;Temp;Humidity;BMP_temperature;BMP_pressure;BME280_temperature;BME280_humidity;BME280_pressure;Samples;Min_cycle;Max_cycle;Signal;HPM_P1;HPM_P2
2020/12/17 00:00:25;;;;;;;15.45;10.93;;;;;;;-1.65;87.13;102063.64;1818082;79;21061;-35
2020/12/17 00:02:53;;;;;;;19.50;11.20;;;;;;;-1.66;87.16;102068.24;1818129;79;20986;-35
2020/12/17 00:05:21;;;;;;;12.20;9.78;;;;;;;-1.65;87.16;102067.08;1818227;79;21497;-35
2020/12/17 00:07:49;;;;;;;14.05;9.75;;;;;;;-1.63;87.23;102069.30;1818127;79;20959;-36
2020/12/17 00:10:16;;;;;;;19.85;11.38;;;;;;;-1.63;87.25;102065.91;1818171;79;21187;-36
2020/12/17 00:12:46;;;;;;;25.75;12.50;;;;;;;-1.66;87.31;102072.05;1818050;79;20923;-34
2020/12/17 00:15:16;;;;;;;62.80;14.73;;;;;;;-1.65;87.37;102063.27;1818130;79;20955;-34
2020/12/17 00:17:50;;;;;;;15.00;11.15;;;;;;;-1.65;87.48;102064.53;1818037;79;20962;-35
2020/12/17 00:20:22;;;;;;;17.27;11.78;;;;;;;-1.64;87.61;102062.85;1818191;79;20982;-37
2020/12/17 00:22:50;;;;;;;19.60;12.00;;;;;;;-1.65;87.65;102063.64;1818055;78;21423;-36
2020/12/17 00:25:18;;;;;;;17.87;11.50;;;;;;;-1.64;87.72;102064.13;1818069;79;20998;-35
2020/12/17 00:27:47;;;;;;;17.50;11.78;;;;;;;-1.69;87.78;102068.06;1818064;78;21041;-34
2020/12/17 00:30:16;;;;;;;18.23;11.63;;;;;;;-1.74;87.83;102067.83;1818113;78;20928;-36
2020/12/17 00:32:45;;;;;;;16.48;11.33;;;;;;;-1.75;87.87;102066.08;1818064;78;21525;-35
2020/12/17 00:35:13;;;;;;;19.60;12.35;;;;;;;-1.78;87.98;102060.41;1818129;79;21322;-35
2020/12/17 00:37:41;;;;;;;21.57;12.63;;;;;;;-1.82;88.12;102066.48;1817961;79;20982;-36
2020/12/17 00:40:14;;;;;;;20.05;12.15;;;;;;;-1.81;88.22;102065.31;1818093;78;20982;-35
2020/12/17 00:42:43;;;;;;;23.22;12.43;;;;;;;-1.81;88.46;102062.77;1818087;79;20990;-35
2020/12/17 00:45:12;;;;;;;24.47;13.78;;;;;;;-1.83;88.52;102060.55;1818171;79;20954;-36
2020/12/17 00:47:39;;;;;;;26.52;14.85;;;;;;;-1.83;88.53;102058.38;1818072;78;21415;-34
2020/12/17 00:50:10;;;;;;;36.77;14.50;;;;;;;-1.83;88.68;102060.92;1818006;78;21081;-35
2020/12/17 00:52:39;;;;;;;28.67;13.80;;;;;;;-1.85;88.77;102059.58;1829051;78;20922;-35
2020/12/17 00:55:07;;;;;;;558.60;33.78;;;;;;;-1.86;88.85;102060.37;1833154;78;21049;-35
2020/12/17 00:57:35;;;;;;;174.27;19.27;;;;;;;-1.84;88.93;102061.33;1833154;78;20982;-35
2020/12/17 01:00:06;;;;;;;224.67;21.97;;;;;;;-1.81;89.05;102055.16;1833111;78;21191;-34
2020/12/17 01:02:34;;;;;;;97.02;13.70;;;;;;;-1.84;89.09;102057.52;1833006;78;21037;-36
2020/12/17 01:05:03;;;;;;;103.58;16.07;;;;;;;-1.85;89.17;102055.77;1832521;78;20954;-34
2020/12/17 01:07:32;;;;;;;153.85;16.77;;;;;;;-1.87;89.14;102048.47;1832479;78;20926;-36
2020/12/17 01:10:00;;;;;;;119.00;14.05;;;;;;;-1.91;89.15;102057.93;1832574;78;21037;-35
2020/12/17 01:12:29;;;;;;;177.78;17.80;;;;;;;-1.93;89.25;102057.86;1832537;77;21192;-35
2020/12/17 01:14:57;;;;;;;344.60;26.27;;;;;;;-1.93;89.24;102063.31;1832524;78;21049;-35
2020/12/17 01:17:24;;;;;;;34.48;11.97;;;;;;;-1.95;89.36;102056.90;1832553;78;20994;-35
2020/12/17 01:19:52;;;;;;;84.45;14.90;;;;;;;-1.95;89.45;102053.47;1832497;77;20962;-35
2020/12/17 01:22:20;;;;;;;158.52;22.00;;;;;;;-1.94;89.44;102051.41;1832580;78;20971;-34
2020/12/17 01:24:48;;;;;;;40.73;12.28;;;;;;;-1.94;89.47;102057.37;1832488;78;21263;-34
2020/12/17 01:27:16;;;;;;;139.05;15.53;;;;;;;-1.94;89.58;102049.77;1832465;78;21021;-34
2020/12/17 01:29:44;;;;;;;232.90;20.85;;;;;;;-1.95;89.64;102048.39;1832513;78;20918;-35
2020/12/17 01:32:12;;;;;;;19.42;9.05;;;;;;;-1.99;89.60;102053.70;1832386;78;20980;-35
2020/12/17 01:34:40;;;;;;;17.52;8.75;;;;;;;-2.02;89.53;102040.83;1832561;78;20931;-35
2020/12/17 01:37:09;;;;;;;16.52;9.13;;;;;;;-2.08;89.49;102041.34;1830228;78;21190;-35
2020/12/17 01:39:37;;;;;;;19.57;9.30;;;;;;;-2.08;89.52;102044.25;1832375;78;20911;-37
2020/12/17 01:42:05;;;;;;;29.35;10.78;;;;;;;-2.10;89.58;102042.91;1832563;78;20997;-36
2020/12/17 01:44:38;;;;;;;22.93;9.78;;;;;;;-2.13;89.73;102046.92;1832464;78;20931;-35
2020/12/17 01:47:06;;;;;;;16.97;9.25;;;;;;;-2.12;89.80;102047.41;1832566;78;21405;-37
2020/12/17 01:49:34;;;;;;;21.48;11.03;;;;;;;-2.10;89.91;102046.72;1832556;78;22607;-35
2020/12/17 01:52:02;;;;;;;20.15;8.75;;;;;;;-2.10;89.94;102049.26;1832312;78;20989;-36
2020/12/17 01:54:29;;;;;;;46.00;9.73;;;;;;;-2.11;90.02;102053.85;1832503;78;20923;-35
2020/12/17 01:57:05;;;;;;;42.45;9.68;;;;;;;-2.09;90.10;102050.12;1832407;78;20942;-36
2020/12/17 01:59:49;;;;;;;22.37;8.85;;;;;;;-2.07;90.09;102052.34;1832632;78;21021;-35
2020/12/17 02:02:19;;;;;;;17.15;8.48;;;;;;;-2.09;90.11;102056.46;1832595;78;21189;-36
2020/12/17 02:04:46;;;;;;;29.25;8.60;;;;;;;-2.09;90.08;102053.55;1832441;78;21033;-35
2020/12/17 02:07:14;;;;;;;13.95;6.92;;;;;;;-2.11;90.10;102043.70;1832526;78;20930;-35
2020/12/17 02:09:43;;;;;;;15.23;8.28;;;;;;;-2.10;90.13;102045.45;1832355;78;21053;-35
2020/12/17 02:12:11;;;;;;;15.55;8.60;;;;;;;-2.10;90.11;102044.18;1832541;78;21018;-34
2020/12/17 02:14:39;;;;;;;9.98;6.72;;;;;;;-2.11;90.10;102036.47;1832447;78;21298;-37
2020/12/17 02:17:07;;;;;;;15.78;8.35;;;;;;;-2.11;90.13;102036.09;1832415;78;20926;-35
2020/12/17 02:19:34;;;;;;;14.10;7.62;;;;;;;-2.11;90.12;102035.20;1832451;78;20962;-34
2020/12/17 02:22:02;;;;;;;11.40;7.30;;;;;;;-2.11;90.14;102032.28;1832442;77;20970;-34
2020/12/17 02:24:29;;;;;;;10.55;6.45;;;;;;;-2.10;90.19;102037.84;1832526;78;20906;-35
2020/12/17 02:26:58;;;;;;;20.57;7.83;;;;;;;-2.12;90.14;102026.72;1832445;78;21206;-37
2020/12/17 02:29:26;;;;;;;61.00;9.58;;;;;;;-2.14;90.19;102028.67;1832499;78;21026;-35
2020/12/17 02:31:53;;;;;;;50.48;9.98;;;;;;;-2.12;90.23;102036.87;1832401;78;20985;-34
2020/12/17 02:34:21;;;;;;;9.20;5.53;;;;;;;-2.11;90.29;102029.74;1832493;78;20919;-35
2020/12/17 02:36:50;;;;;;;22.20;8.55;;;;;;;-2.11;90.34;102025.94;1832492;78;20923;-34
2020/12/17 02:39:18;;;;;;;7.95;5.33;;;;;;;-2.10;90.31;102030.22;1832584;78;21350;-34
2020/12/17 02:41:46;;;;;;;16.48;6.60;;;;;;;-2.09;90.36;102031.97;1832513;78;21042;-37
2020/12/17 02:44:14;;;;;;;13.50;6.20;;;;;;;-2.10;90.36;102030.22;1832492;78;20985;-36
2020/12/17 02:46:42;;;;;;;40.73;8.55;;;;;;;-2.09;90.37;102034.89;1832373;78;20994;-36
2020/12/17 02:49:10;;;;;;;44.75;7.30;;;;;;;-2.13;90.29;102041.47;1832524;78;20907;-36
2020/12/17 02:51:40;;;;;;;24.40;6.40;;;;;;;-2.10;90.21;102037.84;1832433;78;21203;-38
2020/12/17 02:54:08;;;;;;;12.43;5.75;;;;;;;-2.13;90.17;102040.20;1832360;78;21001;-35
2020/12/17 02:56:36;;;;;;;102.70;8.55;;;;;;;-2.13;90.16;102044.00;1832456;78;20903;-35
2020/12/17 02:59:04;;;;;;;170.43;12.13;;;;;;;-2.11;90.14;102051.31;1832451;78;20986;-35
2020/12/17 03:01:32;;;;;;;11.30;5.45;;;;;;;-2.10;90.17;102049.26;1832430;78;20986;-35
2020/12/17 03:03:59;;;;;;;28.25;6.37;;;;;;;-2.09;90.24;102049.74;1832443;78;21192;-35
2020/12/17 03:06:27;;;;;;;51.70;6.20;;;;;;;-2.09;90.20;102044.66;1832434;78;20887;-35
2020/12/17 03:08:55;;;;;;;37.80;6.42;;;;;;;-2.07;90.17;102036.74;1832450;78;20966;-35
2020/12/17 03:11:23;;;;;;;22.20;6.70;;;;;;;-2.10;90.22;102033.14;1832406;78;20950;-35
2020/12/17 03:13:51;;;;;;;11.18;6.35;;;;;;;-2.10;90.23;102034.41;1832485;78;21013;-35
2020/12/17 03:16:20;;;;;;;19.90;7.10;;;;;;;-2.09;90.20;102042.50;1832578;78;22319;-37
2020/12/17 03:18:47;;;;;;;28.52;7.17;;;;;;;-2.10;90.27;102047.09;1832415;78;21121;-35
2020/12/17 03:21:17;;;;;;;14.73;6.55;;;;;;;-2.11;90.29;102042.44;1832371;78;20978;-36
2020/12/17 03:23:45;;;;;;;12.43;6.10;;;;;;;-2.07;90.30;102044.73;1832335;78;20919;-35
2020/12/17 03:26:13;;;;;;;19.00;6.33;;;;;;;-2.07;90.34;102038.02;1832438;78;20970;-34
2020/12/17 03:28:41;;;;;;;38.33;6.75;;;;;;;-2.06;90.36;102044.84;1832348;78;22830;-36
2020/12/17 03:31:09;;;;;;;60.17;7.62;;;;;;;-2.03;90.37;102047.93;1832379;78;21060;-36
2020/12/17 03:33:37;;;;;;;102.40;9.90;;;;;;;-2.01;90.40;102056.55;1832339;78;20863;-36
2020/12/17 03:36:05;;;;;;;90.90;9.60;;;;;;;-2.04;90.50;102045.80;1832357;78;20970;-35
2020/12/17 03:38:34;;;;;;;93.62;9.85;;;;;;;-2.02;90.49;102043.37;1831056;78;20990;-36
2020/12/17 03:41:02;;;;;;;117.35;10.30;;;;;;;-1.99;90.50;102043.92;1832442;78;21461;-35
2020/12/17 03:43:29;;;;;;;24.82;7.65;;;;;;;-2.00;90.60;102049.41;1832358;78;20933;-34
2020/12/17 03:45:59;;;;;;;53.92;7.53;;;;;;;-1.97;90.63;102047.42;1832390;78;21001;-36
2020/12/17 03:48:27;;;;;;;143.75;9.80;;;;;;;-1.98;90.61;102044.03;1832423;78;20891;-35
2020/12/17 03:50:55;;;;;;;216.25;14.40;;;;;;;-1.98;90.66;102045.67;1832456;78;20914;-35
2020/12/17 03:53:23;;;;;;;22.25;5.37;;;;;;;-1.98;90.73;102045.67;1832272;78;21309;-34
2020/12/17 03:55:51;;;;;;;30.92;4.78;;;;;;;-1.97;90.75;102048.69;1832320;78;20993;-34
2020/12/17 03:58:19;;;;;;;64.85;7.87;;;;;;;-1.97;90.74;102047.05;1832444;78;20997;-34
2020/12/17 04:00:46;;;;;;;41.60;6.37;;;;;;;-1.99;90.79;102044.81;1832390;78;20950;-36
2020/12/17 04:03:14;;;;;;;80.95;8.23;;;;;;;-1.98;90.78;102041.87;1832434;78;20907;-35
2020/12/17 04:05:42;;;;;;;86.63;8.93;;;;;;;-1.97;90.76;102039.81;1832460;78;22053;-35
2020/12/17 04:08:10;;;;;;;27.67;5.12;;;;;;;-1.97;90.82;102037.27;1832380;78;20914;-35
2020/12/17 04:10:38;;;;;;;14.63;4.83;;;;;;;-1.97;90.85;102038.55;1832357;78;20910;-34
2020/12/17 04:13:05;;;;;;;5.25;4.10;;;;;;;-1.98;90.79;102027.91;1832257;78;20930;-36
2020/12/17 04:15:33;;;;;;;8.43;4.40;;;;;;;-2.00;90.80;102027.83;1832414;78;22107;-35
2020/12/17 04:18:01;;;;;;;23.12;5.90;;;;;;;-2.02;90.85;102036.61;1832339;78;21185;-35
2020/12/17 04:20:29;;;;;;;7.80;5.10;;;;;;;-2.03;90.84;102030.16;1832358;78;20915;-34
2020/12/17 04:22:57;;;;;;;11.30;5.05;;;;;;;-2.03;90.85;102035.23;1832283;78;21041;-34
2020/12/17 04:25:24;;;;;;;6.58;4.85;;;;;;;-2.05;90.95;102033.91;1832393;78;21017;-35
2020/12/17 04:27:53;;;;;;;6.62;4.47;;;;;;;-2.04;90.96;102030.95;1832367;78;20930;-34
2020/12/17 04:30:21;;;;;;;5.80;4.33;;;;;;;-2.03;90.96;102034.86;1832430;78;21353;-35
2020/12/17 04:32:49;;;;;;;6.47;4.45;;;;;;;-2.05;90.96;102030.09;1832261;78;21029;-35
2020/12/17 04:35:17;;;;;;;5.25;4.03;;;;;;;-2.07;91.02;102030.40;1832438;78;20968;-34
2020/12/17 04:37:45;;;;;;;8.18;5.08;;;;;;;-2.05;91.07;102031.36;1832331;78;20986;-35
2020/12/17 04:40:12;;;;;;;6.58;5.20;;;;;;;-2.06;91.02;102027.08;1832563;78;20950;-35
2020/12/17 04:42:40;;;;;;;10.68;6.28;;;;;;;-2.06;91.07;102028.72;1832506;78;21179;-35
2020/12/17 04:45:08;;;;;;;10.68;5.55;;;;;;;-2.06;91.13;102028.34;1832506;78;20965;-36
2020/12/17 04:47:38;;;;;;;10.08;6.10;;;;;;;-2.04;91.11;102028.41;1805249;78;20979;-34
2020/12/17 04:50:11;;;;;;;7.17;5.42;;;;;;;-2.04;91.11;102026.77;1832467;78;20926;-35
2020/12/17 04:52:39;;;;;;;9.05;5.28;;;;;;;-2.04;91.18;102029.30;1831618;78;20894;-37
2020/12/17 04:55:07;;;;;;;9.20;5.60;;;;;;;-2.04;91.25;102026.77;1817484;78;21127;-35
2020/12/17 04:57:46;;;;;;;10.38;4.83;;;;;;;-2.00;91.25;102034.56;1817352;78;20955;-35
2020/12/17 05:00:14;;;;;;;8.03;5.53;;;;;;;-2.01;91.25;102032.43;1817460;78;20911;-35
2020/12/17 05:02:46;;;;;;;7.67;5.05;;;;;;;-2.02;91.34;102028.14;1817416;78;20970;-35
2020/12/17 05:05:16;;;;;;;8.40;4.70;;;;;;;-1.99;91.31;102015.63;1817490;78;21054;-36
2020/12/17 05:07:44;;;;;;;6.42;4.20;;;;;;;-1.96;91.28;102014.91;1817431;79;21146;-35
2020/12/17 05:10:12;;;;;;;7.50;5.03;;;;;;;-1.97;91.27;102013.16;1817451;78;21125;-36
2020/12/17 05:12:40;;;;;;;5.97;4.47;;;;;;;-1.97;91.32;102010.62;1817390;79;20875;-35
2020/12/17 05:15:07;;;;;;;5.22;4.00;;;;;;;-1.97;91.28;102016.59;1817435;79;21014;-34
2020/12/17 05:17:35;;;;;;;7.60;3.70;;;;;;;-1.95;91.23;102015.01;1817481;79;20919;-35
2020/12/17 05:20:05;;;;;;;6.17;4.22;;;;;;;-1.97;91.24;102019.13;1817487;79;21188;-36
2020/12/17 05:22:35;;;;;;;5.45;3.77;;;;;;;-1.97;91.24;102016.97;1816951;79;21010;-37
2020/12/17 05:25:02;;;;;;;5.83;3.83;;;;;;;-1.95;91.20;102016.66;1817444;79;20927;-37
2020/12/17 05:27:31;;;;;;;4.62;3.70;;;;;;;-1.94;91.17;102017.14;1817476;78;21043;-35
2020/12/17 05:29:58;;;;;;;7.05;4.28;;;;;;;-1.95;91.17;102023.89;1817397;79;20978;-36
2020/12/17 05:32:26;;;;;;;5.92;3.92;;;;;;;-1.95;91.18;102031.89;1817399;79;21322;-36
2020/12/17 05:34:55;;;;;;;4.67;3.27;;;;;;;-1.94;91.13;102026.91;1817384;78;21120;-36
2020/12/17 05:37:22;;;;;;;6.42;3.92;;;;;;;-1.94;91.10;102034.53;1817462;79;20987;-36
2020/12/17 05:39:52;;;;;;;6.35;3.80;;;;;;;-1.94;91.14;102046.33;1816735;79;21002;-34
2020/12/17 05:42:20;;;;;;;5.72;3.95;;;;;;;-1.93;91.12;102048.08;1761095;79;20967;-36
2020/12/17 05:44:47;;;;;;;5.00;3.35;;;;;;;-1.90;91.08;102049.52;1786164;79;21360;-39
2020/12/17 05:47:17;;;;;;;3.52;3.22;;;;;;;-1.91;91.09;102054.13;1817365;78;20951;-37
2020/12/17 05:49:45;;;;;;;3.77;3.37;;;;;;;-1.90;91.10;102054.22;1817415;79;20955;-37
2020/12/17 05:52:18;;;;;;;4.90;3.60;;;;;;;-1.87;91.02;102056.08;1817390;79;20982;-36
2020/12/17 05:55:00;;;;;;;3.65;3.12;;;;;;;-1.84;90.98;102054.09;1817385;78;21018;-36
2020/12/17 05:57:28;;;;;;;3.67;3.10;;;;;;;-1.85;90.96;102054.88;1817479;79;21350;-35
2020/12/17 06:00:01;;;;;;;6.50;3.47;;;;;;;-1.85;90.96;102055.77;1784589;79;20923;-35
2020/12/17 06:02:33;;;;;;;2.90;2.50;;;;;;;-1.81;90.93;102070.77;1817492;79;20998;-36
2020/12/17 06:05:08;;;;;;;3.65;3.08;;;;;;;-1.80;90.87;102065.80;1817410;78;21010;-36
2020/12/17 06:07:48;;;;;;;6.20;3.33;;;;;;;-1.78;90.88;102073.11;1817727;78;20951;-35
2020/12/17 06:10:24;;;;;;;4.67;3.15;;;;;;;-1.80;90.87;102072.14;1816981;79;21377;-35
2020/12/17 06:12:54;;;;;;;4.20;3.37;;;;;;;-1.76;90.80;102080.42;1817076;79;20967;-35
2020/12/17 06:15:28;;;;;;;4.17;3.45;;;;;;;-1.75;90.75;102087.66;1817355;78;20935;-35
2020/12/17 06:18:02;;;;;;;5.40;2.92;;;;;;;-1.75;90.76;102082.58;1817372;79;20903;-36
2020/12/17 06:20:32;;;;;;;4.08;3.20;;;;;;;-1.71;90.70;102084.50;1817464;79;20903;-36
2020/12/17 06:23:06;;;;;;;3.83;2.80;;;;;;;-1.69;90.66;102088.01;1816829;79;21427;-36
2020/12/17 06:25:35;;;;;;;3.52;3.10;;;;;;;-1.67;90.66;102091.89;1817349;79;21022;-36
2020/12/17 06:28:04;;;;;;;3.12;2.90;;;;;;;-1.66;90.60;102093.64;1817455;79;20951;-36
2020/12/17 06:30:33;;;;;;;6.95;2.90;;;;;;;-1.63;90.53;102091.30;1816707;79;20966;-36
2020/12/17 06:33:05;;;;;;;83.58;5.75;;;;;;;-1.62;90.48;102096.45;1786179;79;21530;-36
2020/12/17 06:35:54;;;;;;;12.98;3.55;;;;;;;-1.61;90.48;102099.88;1817386;78;21427;-34
2020/12/17 06:38:25;;;;;;;5.42;3.22;;;;;;;-1.61;90.45;102094.80;1817280;79;21018;-35
2020/12/17 06:40:55;;;;;;;5.50;3.42;;;;;;;-1.59;90.38;102094.50;1817351;79;20923;-37
2020/12/17 06:43:32;;;;;;;4.85;3.40;;;;;;;-1.58;90.36;102097.52;1817337;79;20967;-35
2020/12/17 06:46:03;;;;;;;12.93;4.12;;;;;;;-1.58;90.40;102097.52;1817413;79;21493;-35
2020/12/17 06:48:38;;;;;;;4.78;3.67;;;;;;;-1.57;90.38;102090.38;1784779;79;21124;-35
2020/12/17 06:51:41;;;;;;;86.20;7.03;;;;;;;-1.53;90.36;102096.48;1817405;79;20931;-36
2020/12/17 06:54:19;;;;;;;16.48;3.67;;;;;;;-1.53;90.40;102096.48;1821814;78;20914;-35
2020/12/17 06:57:11;;;;;;;7.55;4.10;;;;;;;-1.48;90.48;102101.47;1829803;78;20985;-34
2020/12/17 06:59:41;;;;;;;8.18;3.85;;;;;;;-1.43;90.44;102108.06;1829774;78;20891;-36
2020/12/17 07:02:09;;;;;;;7.47;4.53;;;;;;;-1.41;90.41;102107.75;1829780;78;21184;-35
2020/12/17 07:04:47;;;;;;;7.00;3.90;;;;;;;-1.40;90.45;102114.58;1829740;78;20930;-36
2020/12/17 07:07:23;;;;;;;9.38;4.87;;;;;;;-1.39;90.48;102115.06;1829714;78;21642;-36
2020/12/17 07:09:54;;;;;;;6.60;4.97;;;;;;;-1.36;90.44;102112.73;1829843;78;21002;-35
2020/12/17 07:12:39;;;;;;;17.27;5.00;;;;;;;-1.34;90.37;102117.09;1829817;78;20994;-34
2020/12/17 07:15:32;;;;;;;8.05;4.87;;;;;;;-1.31;90.36;102112.59;1829932;78;22687;-34
2020/12/17 07:18:24;;;;;;;12.03;4.90;;;;;;;-1.31;90.31;102117.67;1829631;78;20981;-34
2020/12/17 07:21:06;;;;;;;10.70;4.92;;;;;;;-1.26;90.28;102109.91;1829770;78;20962;-34
2020/12/17 07:23:39;;;;;;;8.18;4.78;;;;;;;-1.22;90.23;102118.19;1829707;78;21278;-35
2020/12/17 07:26:13;;;;;;;10.75;5.62;;;;;;;-1.21;90.21;102114.84;1829820;78;20903;-35
2020/12/17 07:28:41;;;;;;;9.00;5.50;;;;;;;-1.18;90.16;102112.89;1829783;78;21408;-35
2020/12/17 07:31:09;;;;;;;10.05;5.40;;;;;;;-1.13;90.08;102113.16;1829696;78;20934;-35
2020/12/17 07:33:41;;;;;;;14.98;5.72;;;;;;;-1.10;90.07;102118.41;1829729;78;20919;-35
2020/12/17 07:36:10;;;;;;;16.62;6.05;;;;;;;-1.09;90.05;102123.97;1829785;78;20903;-36
2020/12/17 07:38:39;;;;;;;8.83;5.50;;;;;;;-1.05;90.01;102124.21;1829805;78;20882;-37
2020/12/17 07:41:26;;;;;;;9.88;5.42;;;;;;;-0.96;89.89;102131.48;1829433;78;21372;-38
2020/12/17 07:43:54;;;;;;;16.40;5.80;;;;;;;-0.89;89.81;102123.39;1829614;78;20931;-36
2020/12/17 07:46:40;;;;;;;8.23;5.55;;;;;;;-0.87;89.77;102126.03;1829919;78;21148;-35
2020/12/17 07:49:23;;;;;;;27.42;6.05;;;;;;;-0.84;89.77;102128.74;1829983;78;20910;-36
2020/12/17 07:51:51;;;;;;;7.20;5.22;;;;;;;-0.77;89.68;102128.28;1829883;78;20950;-34
2020/12/17 07:54:20;;;;;;;10.23;5.30;;;;;;;-0.69;89.52;102127.44;1826247;78;21120;-36
2020/12/17 07:56:49;;;;;;;22.10;4.72;;;;;;;-0.69;89.21;102125.30;1817262;79;21355;-37
2020/12/17 07:59:17;;;;;;;10.43;5.10;;;;;;;-0.68;89.12;102125.78;1817359;79;21006;-35
2020/12/17 08:01:45;;;;;;;9.30;4.95;;;;;;;-0.67;89.05;102120.76;1817273;79;20942;-35
2020/12/17 08:04:13;;;;;;;11.10;5.25;;;;;;;-0.64;88.94;102122.20;1817377;79;20962;-35
2020/12/17 08:06:41;;;;;;;9.93;5.28;;;;;;;-0.59;88.78;102128.43;1817352;79;21193;-34
2020/12/17 08:09:10;;;;;;;8.43;5.60;;;;;;;-0.53;88.71;102123.19;1817333;79;20911;-35
2020/12/17 08:11:39;;;;;;;9.53;6.33;;;;;;;-0.52;88.57;102124.94;1786031;79;20903;-36
2020/12/17 08:14:07;;;;;;;9.88;6.62;;;;;;;-0.47;88.43;102124.41;1817332;79;20931;-35
2020/12/17 08:16:35;;;;;;;13.85;6.80;;;;;;;-0.38;88.18;102124.02;1817639;78;20963;-34
2020/12/17 08:19:03;;;;;;;10.20;6.30;;;;;;;-0.37;87.88;102123.61;1817562;79;22739;-35
2020/12/17 08:21:33;;;;;;;9.95;5.83;;;;;;;-0.33;87.81;102129.34;1817415;77;21072;-36
2020/12/17 08:24:01;;;;;;;8.78;5.60;;;;;;;-0.32;87.65;102119.25;1817524;78;21014;-38
2020/12/17 08:26:29;;;;;;;8.58;5.47;;;;;;;-0.31;87.37;102122.28;1817528;79;21053;-37
2020/12/17 08:28:57;;;;;;;6.92;5.67;;;;;;;-0.33;87.25;102118.78;1817494;79;21018;-35
2020/12/17 08:31:28;;;;;;;7.45;4.95;;;;;;;-0.36;87.05;102118.62;1817587;79;21492;-35
2020/12/17 08:34:00;;;;;;;8.58;4.28;;;;;;;-0.37;86.95;102113.05;1817463;78;21022;-36
2020/12/17 08:36:31;;;;;;;5.30;4.45;;;;;;;-0.37;86.74;102117.25;1817504;78;21437;-35
2020/12/17 08:39:10;;;;;;;6.58;4.05;;;;;;;-0.38;86.12;102113.84;1817451;79;20986;-35
2020/12/17 08:41:54;;;;;;;6.55;3.77;;;;;;;-0.39;86.10;102116.30;1816018;79;20900;-35
2020/12/17 08:44:29;;;;;;;4.65;3.85;;;;;;;-0.41;86.11;102111.52;1817454;78;21925;-36
2020/12/17 08:47:02;;;;;;;6.50;4.35;;;;;;;-0.41;86.15;102108.98;1817427;79;21041;-36
2020/12/17 08:49:31;;;;;;;8.85;4.95;;;;;;;-0.39;86.08;102103.57;1817597;78;20915;-35
2020/12/17 08:51:59;;;;;;;8.40;4.80;;;;;;;-0.38;85.92;102108.75;1817410;79;20919;-38
2020/12/17 08:54:31;;;;;;;4.95;4.33;;;;;;;-0.34;85.65;102114.48;1819951;78;21084;-35
2020/12/17 08:57:10;;;;;;;5.47;4.50;;;;;;;-0.29;85.35;102108.34;1832600;77;22439;-34
2020/12/17 08:59:38;;;;;;;7.83;4.33;;;;;;;-0.22;85.34;102108.27;1832511;78;20934;-36
2020/12/17 09:02:06;;;;;;;5.85;4.33;;;;;;;-0.18;85.15;102114.00;1832503;78;20898;-36
2020/12/17 09:04:34;;;;;;;4.78;3.90;;;;;;;-0.20;84.92;102119.41;1832528;78;21488;-37
2020/12/17 09:07:02;;;;;;;6.28;4.30;;;;;;;-0.22;84.81;102118.45;1832527;78;20970;-36
2020/12/17 09:09:33;;;;;;;6.70;4.33;;;;;;;-0.27;84.58;102112.25;1832572;78;21196;-37
2020/12/17 09:12:02;;;;;;;4.67;4.08;;;;;;;-0.26;84.39;102115.27;1831790;78;20977;-34
2020/12/17 09:14:32;;;;;;;4.83;4.25;;;;;;;-0.32;84.28;102114.16;1832504;78;20871;-36
2020/12/17 09:17:17;;;;;;;7.10;4.53;;;;;;;-0.34;84.23;102114.48;1832490;78;21005;-36
2020/12/17 09:19:47;;;;;;;4.72;3.47;;;;;;;-0.35;84.00;102111.84;1832790;78;20999;-35
2020/12/17 09:22:20;;;;;;;7.12;4.08;;;;;;;-0.34;83.68;102116.14;1832500;78;21253;-36
2020/12/17 09:24:49;;;;;;;6.70;4.95;;;;;;;-0.34;83.72;102111.94;1832527;78;21484;-36
2020/12/17 09:27:27;;;;;;;5.05;4.12;;;;;;;-0.33;83.68;102114.06;1832490;78;20923;-36
2020/12/17 09:30:14;;;;;;;7.60;4.97;;;;;;;-0.32;83.38;102106.53;1832571;78;20959;-35
2020/12/17 09:33:01;;;;;;;6.42;4.50;;;;;;;-0.25;83.49;102110.28;1832634;78;21117;-36
2020/12/17 09:35:36;;;;;;;5.12;4.62;;;;;;;-0.19;83.44;102095.70;1832565;78;22228;-35
2020/12/17 09:38:12;;;;;;;7.70;5.17;;;;;;;-0.13;83.41;102101.10;1832541;77;20966;-35
2020/12/17 09:40:45;;;;;;;;;;;;;;;-0.10;83.39;102101.29;1835158;78;20863;-35
2020/12/17 09:43:15;;;;;;;7.65;5.10;;;;;;;-0.06;82.89;102101.92;1832519;78;20714;-36
2020/12/17 09:45:48;;;;;;;9.05;5.75;;;;;;;0.03;83.04;102098.09;1832486;78;21104;-35
2020/12/17 09:48:28;;;;;;;8.23;5.17;;;;;;;0.10;82.87;102089.95;1832519;78;21322;-36
2020/12/17 09:51:06;;;;;;;10.10;5.67;;;;;;;0.17;82.81;102094.58;1832400;78;21013;-35
2020/12/17 09:53:42;;;;;;;8.15;5.12;;;;;;;0.23;82.55;102089.79;1832458;78;21018;-35
2020/12/17 09:56:17;;;;;;;9.20;4.45;;;;;;;0.24;81.61;102092.81;1821798;78;20994;-37
2020/12/17 09:58:46;;;;;;;11.15;4.15;;;;;;;0.28;81.47;102095.98;1817398;79;20982;-36
2020/12/17 10:01:14;;;;;;;7.40;4.42;;;;;;;0.31;81.21;102097.83;1817509;79;21457;-36
2020/12/17 10:03:41;;;;;;;7.17;4.67;;;;;;;0.30;80.86;102096.45;1817302;79;21085;-36
2020/12/17 10:06:10;;;;;;;4.50;3.42;;;;;;;0.27;80.79;102095.52;1817483;77;20916;-36
2020/12/17 10:08:38;;;;;;;4.85;3.67;;;;;;;0.30;80.23;102086.27;1817399;79;20927;-38
2020/12/17 10:11:06;;;;;;;6.00;4.12;;;;;;;0.35;80.19;102092.46;1817409;79;20908;-36
2020/12/17 10:13:36;;;;;;;4.05;3.62;;;;;;;0.39;80.14;102086.75;1817393;79;21199;-36
2020/12/17 10:16:04;;;;;;;7.90;4.83;;;;;;;0.36;79.55;102081.47;1817345;78;20979;-36
2020/12/17 10:18:32;;;;;;;4.33;3.87;;;;;;;0.32;79.50;102083.39;1817376;78;21026;-35
2020/12/17 10:21:00;;;;;;;4.22;3.47;;;;;;;0.32;79.46;102079.58;1817448;78;22069;-35
2020/12/17 10:23:28;;;;;;;2.87;2.67;;;;;;;0.27;79.40;102076.41;1817413;79;20903;-35
2020/12/17 10:25:56;;;;;;;3.85;3.27;;;;;;;0.21;78.68;102073.56;1817366;79;21192;-34
2020/12/17 10:28:23;;;;;;;6.12;4.05;;;;;;;0.16;78.82;102071.19;1817285;79;21006;-36
2020/12/17 10:30:51;;;;;;;5.67;3.72;;;;;;;0.12;78.85;102074.34;1817340;79;20998;-36
2020/12/17 10:33:19;;;;;;;3.02;2.72;;;;;;;0.08;78.80;102075.00;1817364;79;21251;-37
2020/12/17 10:35:48;;;;;;;2.50;2.30;;;;;;;0.04;78.73;102071.82;1817319;78;20911;-36
2020/12/17 10:38:15;;;;;;;2.45;2.25;;;;;;;0.01;78.13;102081.86;1817383;79;21410;-35
2020/12/17 10:40:43;;;;;;;2.45;2.20;;;;;;;-0.05;77.36;102073.11;1817389;78;21108;-37
2020/12/17 10:43:12;;;;;;;2.02;1.90;;;;;;;-0.11;77.40;102078.28;1817448;78;20998;-36
2020/12/17 10:45:39;;;;;;;5.60;2.55;;;;;;;-0.12;77.27;102078.70;1817322;78;20856;-35
2020/12/17 10:48:10;;;;;;;2.75;2.55;;;;;;;-0.14;77.24;102081.53;1817352;78;20918;-34
2020/12/17 10:50:37;;;;;;;4.37;3.02;;;;;;;-0.19;77.41;102084.24;1817378;79;21259;-34
2020/12/17 10:53:05;;;;;;;4.58;3.27;;;;;;;-0.23;77.78;102083.23;1817225;78;20959;-36
2020/12/17 10:55:33;;;;;;;2.85;2.65;;;;;;;-0.25;77.87;102081.00;1817576;78;21018;-34
2020/12/17 10:58:01;;;;;;;3.00;2.80;;;;;;;-0.27;78.01;102077.89;1817313;79;20967;-35
2020/12/17 11:00:28;;;;;;;3.17;2.65;;;;;;;-0.23;78.01;102077.25;1817441;79;20899;-36
2020/12/17 11:02:56;;;;;;;3.12;2.80;;;;;;;-0.24;77.85;102071.30;1817379;79;22738;-35
2020/12/17 11:05:24;;;;;;;3.58;2.62;;;;;;;-0.25;77.90;102070.83;1817325;79;20923;-35
2020/12/17 11:07:52;;;;;;;2.77;2.50;;;;;;;-0.21;77.97;102069.29;1817478;78;20970;-35
2020/12/17 11:10:21;;;;;;;5.15;2.85;;;;;;;-0.21;78.22;102062.93;1817304;78;21098;-36
2020/12/17 11:12:48;;;;;;;2.85;2.40;;;;;;;-0.20;78.22;102057.04;1817446;79;21011;-37
2020/12/17 11:15:18;;;;;;;3.05;2.55;;;;;;;-0.19;78.33;102054.97;1817507;79;22128;-35
2020/12/17 11:17:46;;;;;;;4.58;3.50;;;;;;;-0.19;78.35;102054.97;1817232;79;21006;-34
2020/12/17 11:20:18;;;;;;;3.40;2.90;;;;;;;-0.19;78.58;102061.33;1817447;79;20991;-35
2020/12/17 11:22:45;;;;;;;3.27;2.98;;;;;;;-0.18;78.70;102065.62;1817387;79;20975;-35
2020/12/17 11:25:13;;;;;;;3.33;3.02;;;;;;;-0.12;78.79;102071.06;1817337;78;20958;-35
2020/12/17 11:27:40;;;;;;;3.80;3.50;;;;;;;-0.13;78.81;102063.33;1817309;79;21428;-36
2020/12/17 11:31:47;;;;;;;3.90;3.20;;;;;;;-0.06;79.01;102061.56;1776916;79;22725;-35
2020/12/17 11:34:15;;;;;;;5.90;3.80;;;;;;;-0.07;78.81;102069.62;1749827;82;21022;-34
2020/12/17 11:36:43;;;;;;;10.00;4.03;;;;;;;-0.06;78.74;102066.27;1749796;82;21205;-36